createdAt,value
2017-09-06T00:00:53.183Z,94.00
2017-09-06T00:03:20.634Z,93.90
2017-09-06T00:05:48.111Z,94.00
2017-09-06T00:08:15.581Z,94.10
2017-09-06T00:10:43.052Z,94.10
2017-09-06T00:13:10.553Z,94.30
2017-09-06T00:15:38.420Z,94.60
2017-09-06T00:18:06.801Z,95.10
2017-09-06T00:20:34.272Z,95.40
2017-09-06T00:23:01.802Z,95.70
2017-09-06T00:25:29.266Z,95.90
2017-09-06T00:27:57.534Z,96.10
2017-09-06T00:30:25.103Z,96.40
2017-09-06T00:32:53.345Z,96.40
2017-09-06T00:35:20.824Z,96.30
2017-09-06T00:37:49.256Z,96.50
2017-09-06T00:40:16.767Z,96.70
2017-09-06T00:42:44.247Z,96.70
2017-09-06T00:45:11.720Z,96.90
2017-09-06T00:47:39.231Z,97.00
2017-09-06T00:50:08.111Z,97.10
2017-09-06T00:52:35.616Z,97.30
2017-09-06T00:55:03.148Z,97.30
2017-09-06T00:57:30.624Z,97.40
2017-09-06T00:59:58.086Z,97.50
2017-09-06T01:02:25.583Z,97.60
2017-09-06T01:04:53.061Z,97.60
2017-09-06T01:07:20.533Z,97.60
2017-09-06T01:09:48.000Z,97.90
2017-09-06T01:12:15.471Z,97.60
2017-09-06T01:14:43.004Z,97.50
2017-09-06T01:17:10.562Z,97.50
2017-09-06T01:19:38.027Z,97.50
2017-09-06T01:22:05.987Z,97.40
2017-09-06T01:24:33.496Z,97.60
2017-09-06T01:27:00.966Z,97.50
2017-09-06T01:29:28.551Z,97.80
2017-09-06T01:31:56.127Z,97.80
2017-09-06T01:34:23.612Z,97.90
2017-09-06T01:36:51.119Z,98.20
2017-09-06T01:39:18.673Z,98.30
2017-09-06T01:41:46.244Z,98.20
2017-09-06T01:44:13.704Z,98.30
2017-09-06T01:46:41.262Z,98.50
2017-09-06T01:49:09.256Z,98.90
2017-09-06T01:51:37.480Z,98.60
2017-09-06T01:54:04.947Z,98.50
2017-09-06T01:56:32.538Z,98.60
2017-09-06T01:59:00.044Z,98.60
2017-09-06T02:01:27.515Z,98.50
2017-09-06T02:03:55.140Z,98.50
2017-09-06T02:06:22.598Z,98.50
2017-09-06T02:08:50.063Z,98.50
2017-09-06T02:11:17.539Z,98.50
2017-09-06T02:13:45.004Z,98.90
2017-09-06T02:16:12.492Z,98.70
2017-09-06T02:18:40.039Z,98.70
2017-09-06T02:21:07.510Z,98.60
2017-09-06T02:23:35.776Z,98.70
2017-09-06T02:26:03.252Z,98.70
2017-09-06T02:28:30.779Z,98.80
2017-09-06T02:30:58.244Z,98.80
2017-09-06T02:33:25.715Z,98.70
2017-09-06T02:35:53.254Z,98.70
2017-09-06T02:38:20.717Z,98.80
2017-09-06T02:40:48.200Z,98.80
2017-09-06T02:43:15.672Z,98.90
2017-09-06T02:45:43.139Z,98.90
2017-09-06T02:48:10.635Z,99.00
2017-09-06T02:50:38.103Z,99.00
2017-09-06T02:53:05.600Z,98.90
2017-09-06T02:55:33.088Z,98.90
2017-09-06T02:58:00.572Z,98.90
2017-09-06T03:00:28.124Z,99.00
2017-09-06T03:02:55.588Z,98.90
2017-09-06T03:05:23.134Z,99.00
2017-09-06T03:07:50.598Z,99.30
2017-09-06T03:10:18.152Z,98.90
2017-09-06T03:12:45.625Z,98.90
2017-09-06T03:15:13.087Z,98.90
2017-09-06T03:17:40.633Z,98.90
2017-09-06T03:20:08.191Z,98.90
2017-09-06T03:22:35.658Z,99.00
2017-09-06T03:25:03.133Z,98.90
2017-09-06T03:27:30.662Z,99.10
2017-09-06T03:29:58.224Z,99.00
2017-09-06T03:32:25.700Z,99.20
2017-09-06T03:34:53.939Z,99.10
2017-09-06T03:37:21.412Z,99.10
2017-09-06T03:39:48.878Z,99.00
2017-09-06T03:42:16.348Z,98.90
2017-09-06T03:44:43.806Z,99.00
2017-09-06T03:47:11.276Z,99.00
2017-09-06T03:49:38.737Z,98.70
2017-09-06T03:52:06.210Z,98.70
2017-09-06T03:54:33.712Z,98.90
2017-09-06T03:59:35.128Z,98.90
2017-09-06T04:02:02.625Z,99.00
2017-09-06T04:04:30.187Z,98.90
2017-09-06T04:06:57.759Z,98.70
2017-09-06T04:09:25.235Z,98.30
2017-09-06T04:11:52.739Z,98.20
2017-09-06T04:14:20.199Z,98.10
2017-09-06T04:16:47.668Z,97.90
2017-09-06T04:19:15.148Z,98.10
2017-09-06T04:21:42.638Z,97.80
2017-09-06T04:24:10.115Z,98.00
2017-09-06T04:26:37.608Z,98.10
2017-09-06T04:29:05.109Z,98.00
2017-09-06T04:31:32.615Z,97.90
2017-09-06T04:34:00.180Z,97.80
2017-09-06T04:36:27.740Z,98.10
2017-09-06T04:38:55.216Z,97.90
2017-09-06T04:41:22.754Z,97.60
2017-09-06T04:43:50.242Z,97.30
2017-09-06T04:46:17.764Z,97.00
2017-09-06T04:48:45.225Z,96.80
2017-09-06T04:51:12.783Z,96.80
2017-09-06T04:53:40.367Z,96.80
2017-09-06T04:56:07.887Z,96.80
2017-09-06T04:58:35.392Z,97.40
2017-09-06T05:01:02.951Z,97.50
2017-09-06T05:03:30.477Z,97.50
2017-09-06T05:05:58.029Z,97.60
2017-09-06T05:08:26.124Z,97.70
2017-09-06T05:10:54.370Z,97.40
2017-09-06T05:13:21.939Z,97.40
2017-09-06T05:15:49.408Z,97.40
2017-09-06T05:18:16.876Z,97.30
2017-09-06T05:20:44.440Z,97.50
2017-09-06T05:23:11.959Z,97.40
2017-09-06T05:25:39.615Z,97.30
2017-09-06T05:28:07.089Z,97.20
2017-09-06T05:30:34.563Z,97.30
2017-09-06T05:33:02.018Z,97.10
2017-09-06T05:35:30.388Z,97.40
2017-09-06T05:37:57.859Z,97.10
2017-09-06T05:40:26.135Z,97.20
2017-09-06T05:42:53.602Z,97.10
2017-09-06T05:45:21.123Z,97.20
2017-09-06T05:47:48.683Z,97.10
2017-09-06T05:50:16.249Z,96.80
2017-09-06T05:52:43.792Z,96.30
2017-09-06T05:55:11.369Z,96.20
2017-09-06T05:57:39.293Z,95.50
2017-09-06T06:00:06.772Z,95.30
2017-09-06T06:02:34.343Z,95.10
2017-09-06T06:05:01.892Z,94.80
2017-09-06T06:07:29.360Z,94.70
2017-09-06T06:09:57.748Z,94.30
2017-09-06T06:12:25.231Z,94.20
2017-09-06T06:14:53.471Z,94.20
2017-09-06T06:17:21.028Z,94.20
2017-09-06T06:19:48.591Z,94.10
2017-09-06T06:22:16.152Z,94.10
2017-09-06T06:24:43.617Z,94.50
2017-09-06T06:27:11.893Z,94.20
2017-09-06T06:29:39.388Z,94.20
2017-09-06T06:32:07.311Z,94.30
2017-09-06T06:34:34.862Z,94.00
2017-09-06T06:37:02.332Z,93.00
2017-09-06T06:39:29.868Z,92.20
2017-09-06T06:41:57.358Z,91.80
2017-09-06T06:44:24.896Z,91.20
2017-09-06T06:46:52.356Z,91.10
2017-09-06T06:49:19.831Z,91.20
2017-09-06T06:51:47.292Z,91.20
2017-09-06T06:54:14.811Z,90.90
2017-09-06T06:56:42.283Z,90.80
2017-09-06T06:59:10.542Z,91.00
2017-09-06T07:01:38.112Z,90.70
2017-09-06T07:04:05.828Z,90.70
2017-09-06T07:06:33.294Z,87.60
2017-09-06T07:09:00.760Z,87.10
2017-09-06T07:11:28.243Z,85.10
2017-09-06T07:13:55.707Z,84.50
2017-09-06T07:16:23.261Z,85.80
2017-09-06T07:18:50.766Z,84.70
2017-09-06T07:21:18.231Z,85.50
2017-09-06T07:23:45.723Z,84.90
2017-09-06T07:26:13.499Z,85.30
2017-09-06T07:28:40.955Z,84.40
2017-09-06T07:31:08.459Z,84.30
2017-09-06T07:33:35.923Z,84.40
2017-09-06T07:36:03.380Z,83.40
2017-09-06T07:38:30.862Z,82.20
2017-09-06T07:40:58.433Z,82.20
2017-09-06T07:43:26.931Z,82.80
2017-09-06T07:45:54.480Z,82.20
2017-09-06T07:48:21.955Z,82.70
2017-09-06T07:50:50.200Z,81.40
2017-09-06T07:53:17.693Z,81.40
2017-09-06T07:55:45.219Z,82.30
2017-09-06T07:58:12.792Z,81.40
2017-09-06T08:00:40.255Z,82.20
2017-09-06T08:03:08.565Z,82.20
2017-09-06T08:05:36.024Z,82.10
2017-09-06T08:08:10.070Z,83.10
2017-09-06T08:10:37.532Z,83.00
2017-09-06T08:13:04.998Z,83.50
2017-09-06T08:15:32.557Z,82.30
2017-09-06T08:18:00.018Z,83.00
2017-09-06T08:20:28.003Z,82.40
2017-09-06T08:22:55.484Z,81.10
2017-09-06T08:25:22.994Z,79.60
2017-09-06T08:27:50.457Z,78.80
2017-09-06T08:30:18.004Z,77.10
2017-09-06T08:32:45.587Z,77.60
2017-09-06T08:35:13.039Z,75.50
2017-09-06T08:37:41.368Z,75.90
2017-09-06T08:40:09.592Z,75.90
2017-09-06T08:42:37.056Z,76.40
2017-09-06T08:45:04.544Z,78.00
2017-09-06T08:47:32.043Z,77.20
2017-09-06T08:49:59.503Z,77.10
2017-09-06T08:52:28.714Z,77.80
2017-09-06T08:54:56.256Z,77.10
2017-09-06T08:57:23.722Z,76.70
2017-09-06T08:59:52.291Z,75.40
2017-09-06T09:02:19.769Z,75.40
2017-09-06T09:04:47.236Z,74.10
2017-09-06T09:07:14.975Z,76.20
2017-09-06T09:09:42.535Z,76.00
2017-09-06T09:12:09.991Z,73.90
2017-09-06T09:14:37.546Z,75.00
2017-09-06T09:17:05.104Z,74.80
2017-09-06T09:19:32.599Z,75.50
2017-09-06T09:22:00.077Z,75.70
2017-09-06T09:24:27.564Z,74.70
2017-09-06T09:26:55.032Z,75.10
2017-09-06T09:29:22.592Z,75.10
2017-09-06T09:31:50.166Z,74.50
2017-09-06T09:34:17.619Z,76.00
2017-09-06T09:36:45.095Z,77.20
2017-09-06T09:39:12.618Z,77.10
2017-09-06T09:41:40.082Z,76.20
2017-09-06T09:44:07.560Z,77.00
2017-09-06T09:46:35.603Z,75.60
2017-09-06T09:49:03.061Z,74.50
2017-09-06T09:51:30.536Z,72.60
2017-09-06T09:53:58.797Z,69.90
2017-09-06T09:56:26.291Z,69.80
2017-09-06T09:58:53.814Z,70.30
2017-09-06T10:01:21.371Z,71.60
2017-09-06T10:03:49.026Z,71.10
2017-09-06T10:06:16.791Z,69.40
2017-09-06T10:08:44.250Z,70.40
2017-09-06T10:11:11.811Z,70.50
2017-09-06T10:13:39.299Z,70.50
2017-09-06T10:16:06.761Z,67.70
2017-09-06T10:18:34.245Z,68.00
2017-09-06T10:21:01.724Z,67.10
2017-09-06T10:23:29.300Z,67.90
2017-09-06T10:25:56.772Z,68.70
2017-09-06T10:28:24.320Z,69.00
2017-09-06T10:30:51.783Z,68.60
2017-09-06T10:33:19.283Z,69.00
2017-09-06T10:35:46.804Z,68.10
2017-09-06T10:38:14.271Z,67.60
2017-09-06T10:40:42.102Z,66.00
2017-09-06T10:43:09.570Z,63.80
2017-09-06T10:45:37.031Z,64.70
2017-09-06T10:48:05.615Z,65.70
2017-09-06T10:50:33.845Z,66.80
2017-09-06T10:53:01.320Z,66.70
2017-09-06T10:55:28.807Z,67.50
2017-09-06T10:57:56.270Z,67.80
2017-09-06T11:00:24.496Z,68.90
2017-09-06T11:02:52.080Z,68.90
2017-09-06T11:05:19.635Z,69.30
2017-09-06T11:07:47.191Z,70.50
2017-09-06T11:10:14.915Z,70.00
2017-09-06T11:12:43.376Z,69.60
2017-09-06T11:15:10.848Z,68.10
2017-09-06T11:17:38.367Z,68.00
2017-09-06T11:20:05.860Z,67.90
2017-09-06T11:22:33.368Z,67.40
2017-09-06T11:25:00.927Z,67.60
2017-09-06T11:27:28.392Z,68.10
2017-09-06T11:29:55.879Z,66.30
2017-09-06T11:32:23.728Z,68.80
2017-09-06T11:34:51.332Z,68.90
2017-09-06T11:37:18.815Z,67.50
2017-09-06T11:39:46.284Z,67.40
2017-09-06T11:42:14.223Z,65.00
2017-09-06T11:44:41.687Z,66.60
2017-09-06T11:47:09.190Z,67.90
2017-09-06T11:49:37.415Z,68.40
2017-09-06T11:52:04.897Z,68.40
2017-09-06T11:54:32.668Z,69.60
2017-09-06T11:57:01.004Z,69.10
2017-09-06T11:59:28.470Z,69.10
2017-09-06T12:01:55.995Z,68.00
2017-09-06T12:04:23.504Z,66.70
2017-09-06T12:06:50.968Z,65.50
2017-09-06T12:09:19.076Z,64.10
2017-09-06T12:11:46.572Z,64.30
2017-09-06T12:14:14.059Z,65.20
2017-09-06T12:16:41.541Z,66.00
2017-09-06T12:19:08.996Z,65.50
2017-09-06T12:21:36.792Z,66.70
2017-09-06T12:24:04.268Z,66.20
2017-09-06T12:26:31.772Z,65.00
2017-09-06T12:28:59.312Z,64.40
2017-09-06T12:31:27.565Z,64.70
2017-09-06T12:33:55.043Z,64.60
2017-09-06T12:36:22.608Z,62.10
2017-09-06T12:38:50.085Z,63.20
2017-09-06T12:41:17.545Z,61.60
2017-09-06T12:43:45.061Z,58.80
2017-09-06T12:46:12.645Z,59.40
2017-09-06T12:48:41.014Z,60.80
2017-09-06T12:51:09.372Z,58.90
2017-09-06T12:53:36.839Z,58.80
2017-09-06T12:56:04.393Z,58.30
2017-09-06T12:58:31.957Z,60.60
2017-09-06T13:00:59.513Z,61.10
2017-09-06T13:03:27.076Z,59.40
2017-09-06T13:05:54.640Z,59.10
2017-09-06T13:08:22.884Z,57.90
2017-09-06T13:10:50.368Z,57.80
2017-09-06T13:13:17.830Z,58.10
2017-09-06T13:15:45.304Z,59.10
2017-09-06T13:18:13.708Z,60.70
2017-09-06T13:20:41.177Z,60.90
2017-09-06T13:23:08.662Z,61.40
2017-09-06T13:25:36.115Z,63.10
2017-09-06T13:28:03.587Z,64.90
2017-09-06T13:30:31.058Z,65.70
2017-09-06T13:32:58.525Z,66.40
2017-09-06T13:35:25.993Z,67.80
2017-09-06T13:37:53.603Z,68.90
2017-09-06T13:40:21.078Z,69.00
2017-09-06T13:42:48.543Z,69.70
2017-09-06T13:45:17.688Z,66.20
2017-09-06T13:47:45.181Z,66.20
2017-09-06T13:50:12.676Z,64.90
2017-09-06T13:52:41.068Z,62.00
2017-09-06T13:55:08.526Z,62.60
2017-09-06T13:57:36.015Z,59.60
2017-09-06T14:00:03.612Z,59.40
2017-09-06T14:02:31.856Z,59.80
2017-09-06T14:04:59.615Z,59.80
2017-09-06T14:07:27.184Z,57.80
2017-09-06T14:09:54.648Z,57.80
2017-09-06T14:12:22.196Z,58.10
2017-09-06T14:14:49.687Z,57.70
2017-09-06T14:17:17.144Z,57.40
2017-09-06T14:19:44.719Z,55.50
2017-09-06T14:22:12.236Z,54.50
2017-09-06T14:24:39.795Z,56.50
2017-09-06T14:27:07.340Z,58.40
2017-09-06T14:29:34.839Z,59.40
2017-09-06T14:32:02.330Z,58.80
2017-09-06T14:34:29.856Z,59.90
2017-09-06T14:36:57.359Z,59.60
2017-09-06T14:39:24.940Z,60.70
2017-09-06T14:41:52.509Z,61.90
2017-09-06T14:44:20.863Z,60.60
2017-09-06T14:46:48.348Z,61.20
2017-09-06T14:49:15.812Z,59.70
2017-09-06T14:51:43.288Z,60.40
2017-09-06T14:54:10.749Z,61.30
2017-09-06T14:56:38.215Z,61.40
2017-09-06T14:59:05.716Z,59.60
2017-09-06T15:01:33.180Z,59.70
2017-09-06T15:04:00.644Z,60.00
2017-09-06T15:06:28.383Z,60.20
2017-09-06T15:08:55.949Z,60.00
2017-09-06T15:11:23.539Z,60.00
2017-09-06T15:13:51.303Z,60.30
2017-09-06T15:16:19.557Z,61.60
2017-09-06T15:18:47.018Z,61.60
2017-09-06T15:21:15.283Z,62.00
2017-09-06T15:23:42.754Z,62.00
2017-09-06T15:26:10.238Z,60.80
2017-09-06T15:28:37.756Z,61.10
2017-09-06T15:31:05.367Z,60.20
2017-09-06T15:33:32.827Z,60.90
2017-09-06T15:36:00.703Z,60.90
2017-09-06T15:38:28.165Z,61.10
2017-09-06T15:40:55.664Z,63.40
2017-09-06T15:43:23.183Z,65.70
2017-09-06T15:45:50.658Z,67.20
2017-09-06T15:48:18.121Z,68.30
2017-09-06T15:50:45.880Z,68.90
2017-09-06T15:53:13.335Z,68.60
2017-09-06T15:55:40.900Z,70.10
2017-09-06T15:58:08.447Z,69.90
2017-09-06T16:00:35.963Z,71.30
2017-09-06T16:03:03.423Z,72.10
2017-09-06T16:05:30.936Z,72.10
2017-09-06T16:07:58.392Z,72.00
2017-09-06T16:10:26.859Z,71.80
2017-09-06T16:12:54.429Z,71.00
2017-09-06T16:15:21.884Z,70.60
2017-09-06T16:17:49.339Z,70.30
2017-09-06T16:20:16.818Z,70.80
2017-09-06T16:22:44.274Z,71.20
2017-09-06T16:25:11.824Z,71.10
2017-09-06T16:27:39.325Z,70.70
2017-09-06T16:30:06.792Z,71.10
2017-09-06T16:32:34.294Z,71.30
2017-09-06T16:35:01.771Z,71.20
2017-09-06T16:37:29.241Z,71.70
2017-09-06T16:39:56.705Z,71.90
2017-09-06T16:42:24.211Z,71.70
2017-09-06T16:44:51.764Z,72.30
2017-09-06T16:47:19.247Z,72.40
2017-09-06T16:49:47.512Z,72.90
2017-09-06T16:52:15.058Z,72.80
2017-09-06T16:54:42.616Z,73.20
2017-09-06T16:57:10.276Z,73.60
2017-09-06T16:59:37.756Z,73.70
2017-09-06T17:02:05.989Z,74.60
2017-09-06T17:04:33.563Z,74.50
2017-09-06T17:07:01.381Z,74.70
2017-09-06T17:09:41.027Z,74.50
2017-09-06T17:12:08.504Z,75.10
2017-09-06T17:14:36.899Z,74.50
2017-09-06T17:17:04.981Z,73.70
2017-09-06T17:19:33.368Z,73.10
2017-09-06T17:22:00.854Z,72.20
2017-09-06T17:24:28.672Z,73.00
2017-09-06T17:26:56.142Z,72.20
2017-09-06T17:29:23.718Z,72.30
2017-09-06T17:31:51.588Z,73.10
2017-09-06T17:34:19.131Z,73.00
2017-09-06T17:36:47.369Z,74.10
2017-09-06T17:39:14.991Z,74.00
2017-09-06T17:41:42.516Z,73.80
2017-09-06T17:44:10.121Z,73.90
2017-09-06T17:46:37.640Z,74.80
2017-09-06T17:49:05.899Z,76.40
2017-09-06T17:51:33.364Z,75.60
2017-09-06T17:54:00.878Z,75.80
2017-09-06T17:56:28.349Z,76.80
2017-09-06T17:58:55.844Z,76.70
2017-09-06T18:01:23.395Z,76.70
2017-09-06T18:03:51.017Z,76.80
2017-09-06T18:06:18.512Z,76.80
2017-09-06T18:08:46.075Z,76.70
2017-09-06T18:11:13.543Z,76.70
2017-09-06T18:13:41.008Z,76.40
2017-09-06T18:16:08.744Z,76.30
2017-09-06T18:18:36.203Z,76.20
2017-09-06T18:21:03.672Z,76.30
2017-09-06T18:23:31.960Z,76.50
2017-09-06T18:25:59.450Z,76.50
2017-09-06T18:28:27.143Z,76.50
2017-09-06T18:30:55.480Z,77.10
2017-09-06T18:33:22.976Z,77.00
2017-09-06T18:35:50.436Z,77.10
2017-09-06T18:38:18.207Z,77.60
2017-09-06T18:40:45.675Z,78.00
2017-09-06T18:43:13.377Z,78.30
2017-09-06T18:45:41.071Z,79.10
2017-09-06T18:48:08.534Z,80.00
2017-09-06T18:50:36.007Z,80.00
2017-09-06T18:53:03.600Z,80.60
2017-09-06T18:55:31.133Z,81.10
2017-09-06T18:57:59.367Z,81.30
2017-09-06T19:00:26.852Z,81.20
2017-09-06T19:02:54.471Z,81.70
2017-09-06T19:05:21.947Z,81.60
2017-09-06T19:07:49.537Z,81.60
2017-09-06T19:10:17.089Z,81.00
2017-09-06T19:12:44.568Z,81.20
2017-09-06T19:15:12.409Z,80.90
2017-09-06T19:17:40.599Z,80.80
2017-09-06T19:20:08.859Z,80.80
2017-09-06T19:22:36.700Z,80.70
2017-09-06T19:25:04.416Z,81.20
2017-09-06T19:27:31.920Z,81.80
2017-09-06T19:29:59.400Z,82.60
2017-09-06T19:32:26.873Z,83.40
2017-09-06T19:34:54.467Z,83.70
2017-09-06T19:37:21.985Z,84.20
2017-09-06T19:39:49.439Z,84.80
2017-09-06T19:42:16.923Z,86.00
2017-09-06T19:44:44.379Z,86.20
2017-09-06T19:47:11.862Z,85.90
2017-09-06T19:49:39.349Z,86.30
2017-09-06T19:52:06.927Z,86.70
2017-09-06T19:54:34.393Z,87.10
2017-09-06T19:57:01.940Z,87.80
2017-09-06T19:59:29.704Z,87.80
2017-09-06T20:01:57.456Z,88.30
2017-09-06T20:04:24.954Z,88.60
2017-09-06T20:06:52.967Z,89.00
2017-09-06T20:09:20.445Z,89.50
2017-09-06T20:11:47.905Z,89.50
2017-09-06T20:14:15.375Z,89.60
2017-09-06T20:16:43.605Z,90.00
2017-09-06T20:19:12.555Z,90.00
2017-09-06T20:21:40.035Z,90.00
2017-09-06T20:24:07.508Z,90.10
2017-09-06T20:26:35.143Z,90.20
2017-09-06T20:29:02.668Z,90.20
2017-09-06T20:31:30.168Z,90.10
2017-09-06T20:33:57.663Z,90.10
2017-09-06T20:36:25.411Z,90.20
2017-09-06T20:38:53.832Z,90.20
2017-09-06T20:41:21.286Z,90.60
2017-09-06T20:43:48.837Z,90.40
2017-09-06T20:46:16.406Z,90.30
2017-09-06T20:48:44.054Z,90.10
2017-09-06T20:51:11.628Z,89.70
2017-09-06T20:53:39.879Z,89.70
2017-09-06T20:56:07.346Z,89.70
2017-09-06T20:58:35.121Z,89.40
2017-09-06T21:01:02.640Z,89.10
2017-09-06T21:03:30.281Z,89.10
2017-09-06T21:05:58.076Z,88.70
2017-09-06T21:08:25.541Z,88.60
2017-09-06T21:10:53.027Z,88.70
2017-09-06T21:13:20.769Z,88.60
2017-09-06T21:15:48.251Z,88.90
2017-09-06T21:18:15.770Z,88.60
2017-09-06T21:20:43.287Z,88.80
2017-09-06T21:23:10.793Z,88.60
2017-09-06T21:25:38.251Z,88.60
2017-09-06T21:28:05.732Z,88.60
2017-09-06T21:30:33.265Z,89.00
2017-09-06T21:35:48.571Z,90.20
2017-09-06T21:38:16.117Z,90.30
2017-09-06T21:40:43.669Z,90.60
2017-09-06T21:43:11.337Z,90.80
2017-09-06T21:45:38.894Z,91.00
2017-09-06T21:48:06.598Z,91.00
2017-09-06T21:50:34.102Z,91.10
2017-09-06T21:53:02.232Z,91.30
2017-09-06T21:55:29.740Z,91.00
2017-09-06T21:57:57.209Z,90.70
2017-09-06T22:00:24.747Z,90.80
2017-09-06T22:02:53.108Z,90.60
2017-09-06T22:05:20.604Z,90.70
2017-09-06T22:07:48.200Z,90.70
2017-09-06T22:10:15.663Z,90.40
2017-09-06T22:12:44.183Z,90.60
2017-09-06T22:15:11.743Z,90.80
2017-09-06T22:17:39.208Z,90.60
2017-09-06T22:20:06.757Z,91.00
2017-09-06T22:22:34.211Z,91.00
2017-09-06T22:25:01.689Z,90.40
2017-09-06T22:27:29.923Z,90.20
2017-09-06T22:29:57.457Z,90.10
2017-09-06T22:32:24.971Z,90.10
2017-09-06T22:34:52.445Z,90.10
2017-09-06T22:37:20.184Z,90.20
2017-09-06T22:39:47.688Z,90.20
2017-09-06T22:42:15.164Z,90.30
2017-09-06T22:44:43.472Z,90.30
2017-09-06T22:47:11.026Z,90.00
2017-09-06T22:49:39.011Z,89.80
2017-09-06T22:52:06.476Z,89.60
2017-09-06T22:54:33.996Z,90.20
2017-09-06T22:57:01.460Z,89.80
2017-09-06T22:59:29.076Z,90.00
2017-09-06T23:01:56.586Z,89.90
2017-09-06T23:04:24.143Z,90.10
2017-09-06T23:06:51.603Z,90.00
2017-09-06T23:09:19.060Z,90.20
2017-09-06T23:11:46.620Z,90.30
2017-09-06T23:14:14.167Z,90.60
2017-09-06T23:16:41.659Z,90.70
2017-09-06T23:19:09.190Z,90.80
2017-09-06T23:21:36.651Z,90.60
2017-09-06T23:24:04.206Z,90.70
2017-09-06T23:26:31.763Z,90.20
2017-09-06T23:28:59.293Z,89.80
2017-09-06T23:31:33.631Z,89.30
2017-09-06T23:34:01.088Z,88.60
2017-09-06T23:36:29.067Z,88.30
2017-09-06T23:38:56.535Z,88.30
2017-09-06T23:41:24.087Z,88.30
2017-09-06T23:43:51.563Z,88.60
2017-09-06T23:46:19.815Z,88.60
2017-09-06T23:48:47.378Z,88.60
2017-09-06T23:51:14.835Z,88.90
2017-09-06T23:53:42.294Z,89.30
2017-09-06T23:56:09.755Z,89.70
2017-09-06T23:58:37.213Z,90.30
